createdAt,value
2018-08-19T03:38:01.575Z,0.00
2018-08-19T04:55:10.285Z,1456.00
2018-08-19T09:24:29.727Z,7888.00
2018-08-19T09:27:29.528Z,24480.00
2018-08-19T09:41:06.759Z,32288.00
2018-08-19T09:42:05.073Z,33824.00
2018-08-19T09:43:05.238Z,35744.00
2018-08-19T09:44:02.567Z,36064.00
2018-08-19T09:45:02.693Z,36000.00
2018-08-19T09:46:02.731Z,37152.00
2018-08-19T09:47:02.941Z,37376.00
2018-08-19T09:48:03.064Z,36320.00
2018-08-19T09:49:03.313Z,36704.00
2018-08-19T09:50:03.413Z,37120.00
2018-08-19T09:51:03.590Z,35712.00
2018-08-19T09:52:03.886Z,35776.00
2018-08-19T09:53:04.072Z,38944.00
2018-08-19T09:54:04.175Z,38912.00
2018-08-19T09:55:04.364Z,38880.00
2018-08-19T09:56:04.662Z,40864.00
2018-08-19T09:57:04.700Z,42752.00
2018-08-19T09:58:04.903Z,43200.00
2018-08-19T09:59:05.172Z,43136.00
2018-08-19T10:00:05.343Z,43392.00
2018-08-19T10:01:05.517Z,42688.00
2018-08-19T10:02:06.304Z,39808.00
2018-08-19T10:03:05.713Z,38944.00
2018-08-19T10:04:05.955Z,40192.00
2018-08-19T10:05:06.457Z,43808.00
2018-08-19T10:08:44.434Z,46144.00
2018-08-19T10:12:49.104Z,47616.00
2018-08-19T10:13:48.113Z,49472.00
2018-08-19T10:14:44.769Z,50336.00
2018-08-19T10:15:47.728Z,50592.00
2018-08-19T10:16:45.626Z,49888.00
2018-08-19T10:17:41.944Z,48608.00
2018-08-19T10:22:07.850Z,51616.00
2018-08-19T10:25:01.975Z,48992.00
2018-08-19T10:26:01.703Z,50048.00
2018-08-19T10:27:02.407Z,54080.00
2018-08-19T10:28:01.918Z,55936.00
2018-08-19T10:30:03.293Z,56896.00
2018-08-19T10:30:59.803Z,53536.00
2018-08-19T10:31:59.695Z,51936.00
2018-08-19T10:32:59.858Z,54752.00
2018-08-19T10:34:00.348Z,57184.00
2018-08-19T10:35:00.322Z,57344.00
2018-08-19T10:36:00.663Z,58272.00
2018-08-19T10:37:00.798Z,59232.00
2018-08-19T10:38:02.121Z,58592.00
2018-08-19T10:39:01.267Z,56544.00
2018-08-19T10:40:01.429Z,54080.00
2018-08-19T10:41:01.322Z,55392.00
2018-08-19T10:42:01.618Z,59104.00
2018-08-19T10:43:02.035Z,60960.00
2018-08-19T10:44:01.938Z,60320.00
2018-08-19T10:45:02.141Z,61536.00
2018-08-19T10:48:51.419Z,62624.00
2018-08-19T10:49:52.063Z,61888.00
2018-08-19T10:51:21.297Z,60576.00
2018-08-19T10:53:02.705Z,61728.00
2018-08-19T10:55:01.925Z,59328.00
2018-08-19T10:58:07.438Z,62528.00
2018-08-19T11:00:09.795Z,55744.00
2018-08-19T11:06:21.184Z,62976.00
2018-08-19T11:07:04.455Z,62496.00
2018-08-19T11:07:57.730Z,65504.00
2018-08-19T11:09:15.482Z,66944.00
2018-08-19T11:14:04.830Z,66080.00
2018-08-19T11:17:06.577Z,65440.00
2018-08-19T11:18:02.663Z,67264.00
2018-08-19T11:19:00.855Z,66720.00
2018-08-19T11:20:00.967Z,62336.00
2018-08-19T11:21:02.440Z,62240.00
2018-08-19T11:22:02.611Z,67648.00
2018-08-19T11:23:01.671Z,66208.00
2018-08-19T11:24:01.838Z,61216.00
2018-08-19T11:25:03.275Z,65440.00
2018-08-19T11:26:02.030Z,70496.00
2018-08-19T11:27:02.242Z,71648.00
2018-08-19T11:28:02.431Z,70656.00
2018-08-19T11:29:02.649Z,70464.00
2018-08-19T11:30:02.911Z,69280.00
2018-08-19T11:31:03.122Z,67904.00
2018-08-19T11:32:06.727Z,67744.00
2018-08-19T11:33:04.095Z,68640.00
2018-08-19T11:35:04.164Z,67136.00
2018-08-19T11:36:04.089Z,72256.00
2018-08-19T11:37:05.672Z,74944.00
2018-08-19T11:39:04.651Z,64896.00
2018-08-19T11:41:05.746Z,67200.00
2018-08-19T11:42:05.475Z,66464.00
2018-08-19T11:43:08.217Z,68288.00
2018-08-19T11:44:05.638Z,71552.00
2018-08-19T11:45:06.623Z,72000.00
2018-08-19T11:46:41.165Z,70016.00
2018-08-19T11:47:32.423Z,69056.00
2018-08-19T11:49:34.778Z,74912.00
2018-08-19T11:50:31.124Z,76928.00
2018-08-19T11:51:31.995Z,77248.00
2018-08-19T11:52:32.362Z,76896.00
2018-08-19T11:53:37.399Z,73024.00
2018-08-19T11:54:31.746Z,69440.00
2018-08-19T11:55:32.667Z,69536.00
2018-08-19T11:56:32.081Z,70976.00
2018-08-19T11:57:32.284Z,72672.00
2018-08-19T11:58:32.923Z,74272.00
2018-08-19T11:59:32.856Z,76224.00
2018-08-19T12:00:33.028Z,76192.00
2018-08-19T12:01:33.082Z,75264.00
2018-08-19T12:02:33.272Z,75264.00
2018-08-19T12:05:33.808Z,81440.00
2018-08-19T12:06:34.421Z,80704.00
2018-08-19T12:08:36.420Z,77536.00
2018-08-19T12:09:35.260Z,77504.00
2018-08-19T12:10:34.790Z,78560.00
2018-08-19T12:11:35.123Z,78592.00
2018-08-19T12:12:35.475Z,77760.00
2018-08-19T12:13:35.366Z,80224.00
2018-08-19T12:14:35.572Z,79936.00
2018-08-19T12:15:36.034Z,77344.00
2018-08-19T12:16:39.020Z,78624.00
2018-08-19T12:17:41.317Z,79008.00
2018-08-19T12:18:36.584Z,75008.00
2018-08-19T12:19:36.642Z,71424.00
2018-08-19T12:20:36.706Z,72224.00
2018-08-19T12:21:36.941Z,74656.00
2018-08-19T12:22:37.265Z,73760.00
2018-08-19T12:23:37.341Z,73472.00
2018-08-19T12:24:37.699Z,76320.00
2018-08-19T12:25:37.739Z,79456.00
2018-08-19T12:26:38.129Z,79392.00
2018-08-19T12:27:38.339Z,79808.00
2018-08-19T12:28:38.487Z,81408.00
2018-08-19T12:29:38.580Z,83488.00
2018-08-19T12:30:38.764Z,83072.00
2018-08-19T12:31:38.960Z,82784.00
2018-08-19T12:32:39.099Z,83296.00
2018-08-19T12:33:39.163Z,81632.00
2018-08-19T12:34:39.580Z,80032.00
2018-08-19T12:35:39.520Z,80224.00
2018-08-19T12:36:39.756Z,81408.00
2018-08-19T12:37:40.028Z,84000.00
2018-08-19T12:38:40.259Z,83904.00
2018-08-19T12:39:40.541Z,80288.00
2018-08-19T13:10:59.355Z,77056.00
2018-08-19T13:22:57.349Z,76000.00
2018-08-19T13:23:46.128Z,76448.00
2018-08-19T13:24:44.776Z,75136.00
2018-08-19T13:25:43.521Z,72672.00
2018-08-19T13:26:41.822Z,69664.00
2018-08-19T13:27:41.050Z,69888.00
2018-08-19T13:28:41.039Z,72384.00
2018-08-19T13:29:41.060Z,73024.00
2018-08-19T13:30:41.395Z,73760.00
2018-08-19T13:31:41.526Z,75296.00
2018-08-19T13:32:41.782Z,75456.00
2018-08-19T13:33:41.927Z,76544.00
2018-08-19T13:34:42.073Z,82048.00
2018-08-19T13:35:42.238Z,81376.00
2018-08-19T13:36:42.408Z,77152.00
2018-08-19T13:37:42.697Z,78176.00
2018-08-19T13:38:42.848Z,80928.00
2018-08-19T13:39:42.878Z,80448.00
2018-08-19T13:40:43.189Z,75200.00
2018-08-19T13:41:43.358Z,74752.00
2018-08-19T13:42:43.559Z,78976.00
2018-08-19T13:43:43.820Z,81664.00
2018-08-19T13:44:43.944Z,77472.00
2018-08-19T13:45:44.090Z,72000.00
2018-08-19T13:46:44.397Z,69920.00
2018-08-19T13:47:44.606Z,70176.00
2018-08-19T13:48:44.637Z,75200.00
2018-08-19T13:49:44.845Z,78496.00
2018-08-19T13:50:45.061Z,77024.00
2018-08-19T13:51:45.155Z,71488.00
2018-08-19T13:52:45.364Z,68096.00
2018-08-19T13:53:45.597Z,71232.00
2018-08-19T13:54:45.785Z,79328.00
2018-08-19T13:55:46.032Z,83808.00
2018-08-19T13:56:46.155Z,78912.00
2018-08-19T13:57:46.347Z,73760.00
2018-08-19T13:58:46.554Z,77184.00
2018-08-19T13:59:46.680Z,79136.00
2018-08-19T14:00:47.030Z,75360.00
2018-08-19T14:01:47.073Z,72512.00
2018-08-19T14:02:47.273Z,71456.00
2018-08-19T14:03:48.459Z,70144.00
2018-08-19T14:04:47.716Z,68576.00
2018-08-19T14:05:48.804Z,70976.00
2018-08-19T14:06:48.030Z,74688.00
2018-08-19T14:07:48.283Z,76800.00
2018-08-19T14:08:48.448Z,77888.00
2018-08-19T14:09:48.668Z,78656.00
2018-08-19T14:10:50.006Z,76928.00
2018-08-19T14:11:49.136Z,73024.00
2018-08-19T14:12:49.597Z,71616.00
2018-08-19T14:13:50.713Z,72640.00
2018-08-19T14:14:50.159Z,73888.00
2018-08-19T14:15:50.030Z,75168.00
2018-08-19T14:16:50.160Z,77248.00
2018-08-19T14:17:50.351Z,76608.00
2018-08-19T14:18:50.488Z,75552.00
2018-08-19T14:19:50.672Z,75616.00
2018-08-19T14:20:50.994Z,74880.00
2018-08-19T14:21:51.092Z,73856.00
2018-08-19T14:22:51.229Z,73248.00
2018-08-19T14:23:51.483Z,70976.00
2018-08-19T14:24:51.788Z,70208.00
2018-08-19T14:25:51.900Z,73152.00
2018-08-19T14:26:52.091Z,73984.00
2018-08-19T14:27:52.714Z,73216.00
2018-08-19T14:28:52.437Z,73312.00
2018-08-19T14:29:52.767Z,70528.00
2018-08-19T14:30:52.934Z,69120.00
2018-08-19T14:31:53.072Z,68288.00
2018-08-19T14:32:53.253Z,66784.00
2018-08-19T14:33:53.424Z,69472.00
2018-08-19T14:34:53.602Z,74720.00
2018-08-19T14:35:53.750Z,74816.00
2018-08-19T14:36:53.937Z,72352.00
2018-08-19T14:37:54.215Z,69696.00
2018-08-19T14:38:54.483Z,69280.00
2018-08-19T14:39:54.549Z,70528.00
2018-08-19T14:40:54.733Z,72000.00
2018-08-19T14:41:56.650Z,72544.00
2018-08-19T14:42:55.076Z,74208.00
2018-08-19T14:43:55.463Z,74304.00
2018-08-19T14:44:55.415Z,72736.00
2018-08-19T14:45:55.748Z,71200.00
2018-08-19T14:46:55.806Z,72416.00
2018-08-19T14:47:56.098Z,75968.00
2018-08-19T14:48:56.201Z,75872.00
2018-08-19T14:49:56.496Z,72640.00
2018-08-19T14:50:56.491Z,72096.00
2018-08-19T14:51:56.946Z,74464.00
2018-08-19T14:52:57.030Z,79104.00
2018-08-19T14:53:57.193Z,79424.00
2018-08-19T14:54:58.532Z,71328.00
2018-08-19T14:55:57.987Z,62464.00
2018-08-19T14:56:57.806Z,61824.00
2018-08-19T14:57:58.057Z,63488.00
2018-08-19T14:58:58.180Z,54336.00
2018-08-19T14:59:58.452Z,44480.00
2018-08-19T15:00:58.551Z,48224.00
2018-08-19T15:01:58.804Z,59040.00
2018-08-19T15:02:58.937Z,60352.00
2018-08-19T15:03:59.143Z,46080.00
2018-08-19T15:04:59.301Z,37088.00
2018-08-19T15:05:59.459Z,44480.00
2018-08-19T15:06:59.897Z,53024.00
2018-08-19T15:07:59.886Z,53120.00
2018-08-19T15:09:00.976Z,45152.00
2018-08-19T15:10:00.247Z,38272.00
2018-08-19T15:11:00.418Z,41792.00
2018-08-19T15:12:00.509Z,48448.00
2018-08-19T15:13:00.711Z,46976.00
2018-08-19T15:14:01.103Z,42880.00
2018-08-19T15:15:01.378Z,47232.00
2018-08-19T15:16:01.417Z,54624.00
2018-08-19T15:17:09.324Z,49664.00
2018-08-19T15:18:01.747Z,35328.00
2018-08-19T15:19:02.202Z,28544.00
2018-08-19T15:20:02.409Z,33632.00
2018-08-19T15:21:02.311Z,36768.00
2018-08-19T15:22:02.440Z,33184.00
2018-08-19T15:23:02.759Z,29184.00
2018-08-19T15:24:02.948Z,29920.00
2018-08-19T15:25:03.225Z,32448.00
2018-08-19T15:26:03.242Z,32864.00
2018-08-19T15:27:03.506Z,31328.00
2018-08-19T15:28:03.748Z,28928.00
2018-08-19T15:29:03.760Z,25440.00
2018-08-19T15:30:03.915Z,25152.00
2018-08-19T15:31:04.307Z,26208.00
2018-08-19T15:32:04.440Z,26144.00
2018-08-19T15:33:04.817Z,26528.00
2018-08-19T15:34:04.771Z,27168.00
2018-08-19T15:35:04.911Z,24128.00
2018-08-19T15:36:04.972Z,23776.00
2018-08-19T15:37:05.206Z,27488.00
2018-08-19T15:38:05.509Z,24384.00
2018-08-19T15:39:05.576Z,20224.00
2018-08-19T15:40:05.726Z,23872.00
2018-08-19T15:41:05.998Z,26144.00
2018-08-19T15:42:06.162Z,23712.00
2018-08-19T15:43:06.355Z,29216.00
2018-08-19T15:44:06.516Z,36640.00
2018-08-19T15:45:06.774Z,35104.00
2018-08-19T15:46:06.844Z,35424.00
2018-08-19T15:47:06.967Z,41248.00
2018-08-19T15:48:07.188Z,45632.00
2018-08-19T15:49:07.472Z,49216.00
2018-08-19T15:50:07.629Z,50528.00
2018-08-19T15:51:07.850Z,47392.00
2018-08-19T15:52:07.957Z,38880.00
2018-08-19T15:53:08.087Z,49888.00
2018-08-19T15:54:08.152Z,48704.00
2018-08-19T15:55:13.785Z,21184.00
2018-08-19T15:56:08.747Z,44928.00
2018-08-19T15:57:08.712Z,40544.00
2018-08-19T15:58:09.070Z,17888.00
2018-08-19T15:59:09.230Z,49312.00
2018-08-19T16:00:09.399Z,7612.00
2018-08-19T16:01:09.513Z,6820.00
2018-08-19T16:02:09.640Z,6888.00
2018-08-19T16:03:09.947Z,7388.00
2018-08-19T16:04:10.053Z,6396.00
2018-08-19T16:05:10.252Z,8400.00
2018-08-19T16:06:10.495Z,11108.00
2018-08-19T16:07:10.694Z,10736.00
2018-08-19T16:08:10.850Z,7588.00
2018-08-19T16:09:11.594Z,6216.00
2018-08-19T16:10:11.239Z,6228.00
2018-08-19T16:11:11.458Z,6512.00
2018-08-19T16:12:14.841Z,5992.00
2018-08-19T16:13:12.153Z,5924.00
2018-08-19T16:14:12.276Z,5848.00
2018-08-19T16:15:12.922Z,5796.00
2018-08-19T16:16:12.497Z,7848.00
2018-08-19T16:17:12.915Z,6740.00
2018-08-19T16:18:13.000Z,7652.00
2018-08-19T16:19:13.145Z,6680.00
2018-08-19T16:20:13.536Z,5564.00
2018-08-19T16:21:13.796Z,5420.00
2018-08-19T16:22:14.614Z,5716.00
2018-08-19T16:23:14.128Z,5616.00
2018-08-19T16:24:14.186Z,5396.00
2018-08-19T16:25:14.361Z,5292.00
2018-08-19T16:26:14.486Z,5636.00
2018-08-19T16:27:14.750Z,5220.00
2018-08-19T16:28:15.172Z,5832.00
2018-08-19T16:29:16.540Z,5136.00
2018-08-19T16:30:15.212Z,5460.00
2018-08-19T16:31:15.644Z,7792.00
2018-08-19T16:32:15.808Z,8320.00
2018-08-19T16:33:15.757Z,15680.00
2018-08-19T16:49:58.837Z,4216.00
2018-08-19T16:51:01.036Z,4076.00
2018-08-19T16:52:02.052Z,4196.00
2018-08-19T16:53:06.640Z,4552.00
2018-08-19T16:53:58.293Z,3884.00
2018-08-19T16:54:57.928Z,3804.00
2018-08-19T16:55:55.890Z,3732.00
2018-08-19T16:56:55.767Z,3700.00
2018-08-19T16:57:56.235Z,3584.00
2018-08-19T16:58:58.330Z,3592.00
2018-08-19T16:59:56.532Z,3780.00
2018-08-19T17:00:56.584Z,3448.00
2018-08-19T17:01:56.693Z,3172.00
2018-08-19T17:02:57.058Z,3064.00
2018-08-19T17:03:57.119Z,2984.00
2018-08-19T17:04:57.311Z,2904.00
2018-08-19T17:05:57.459Z,2864.00
2018-08-19T17:06:57.573Z,2768.00
2018-08-19T17:07:57.790Z,2672.00
2018-08-19T17:08:58.005Z,2604.00
2018-08-19T17:09:58.279Z,2556.00
2018-08-19T17:10:58.959Z,2496.00
2018-08-19T17:11:58.523Z,2444.00
2018-08-19T17:12:59.326Z,2400.00
2018-08-19T17:13:58.708Z,2368.00
2018-08-19T17:14:58.925Z,2364.00
2018-08-19T17:15:59.157Z,2364.00
2018-08-19T17:16:59.194Z,2352.00
2018-08-19T17:17:59.447Z,2320.00
2018-08-19T17:18:59.613Z,2252.00
2018-08-19T17:19:59.838Z,2232.00
2018-08-19T17:20:59.847Z,2228.00
2018-08-19T17:22:00.125Z,2216.00
2018-08-19T17:23:00.168Z,2208.00
2018-08-19T17:24:00.464Z,2176.00
2018-08-19T17:25:00.665Z,2164.00
2018-08-19T17:26:00.669Z,2172.00
2018-08-19T17:27:00.973Z,2168.00
2018-08-19T17:28:01.108Z,2164.00
2018-08-19T17:29:01.456Z,2160.00
2018-08-19T17:30:01.486Z,2148.00
2018-08-19T17:31:01.899Z,2140.00
2018-08-19T17:32:02.758Z,2128.00
2018-08-19T17:33:02.196Z,2112.00
2018-08-19T17:34:02.539Z,2104.00
2018-08-19T17:35:02.894Z,2100.00
2018-08-19T17:36:02.906Z,2108.00
2018-08-19T17:37:03.491Z,2112.00
2018-08-19T17:38:04.201Z,2108.00
2018-08-19T17:39:03.891Z,2096.00
2018-08-19T17:40:06.701Z,2080.00
2018-08-19T17:41:04.121Z,2056.00
2018-08-19T17:42:05.003Z,2036.00
2018-08-19T17:43:05.485Z,2016.00
2018-08-19T17:44:05.836Z,1996.00
2018-08-19T17:45:07.333Z,1972.00
2018-08-19T17:46:05.570Z,1944.00
2018-08-19T17:47:05.798Z,1920.00
2018-08-19T17:48:06.793Z,1896.00
2018-08-19T17:49:06.414Z,1860.00
2018-08-19T17:50:06.342Z,1832.00
2018-08-19T17:51:05.859Z,1796.00
2018-08-19T17:52:05.528Z,1764.00
2018-08-19T17:53:13.521Z,1728.00
2018-08-19T17:54:09.042Z,1692.00
2018-08-19T17:55:06.535Z,1656.00
2018-08-19T17:56:06.109Z,1616.00
2018-08-19T17:57:07.605Z,1580.00
2018-08-19T17:58:06.941Z,1544.00
2018-08-19T17:59:06.702Z,1504.00
2018-08-19T18:00:07.248Z,1468.00
2018-08-19T18:01:07.250Z,1424.00
2018-08-19T18:03:07.829Z,1344.00
2018-08-19T18:04:08.099Z,1300.00
2018-08-19T18:05:08.628Z,1256.00
2018-08-19T18:09:50.007Z,1052.00
2018-08-19T18:10:49.768Z,1008.00
2018-08-19T18:11:51.375Z,964.00
2018-08-19T18:12:50.047Z,924.00
2018-08-19T18:13:52.047Z,880.00
2018-08-19T18:14:50.515Z,840.00
2018-08-19T18:15:50.799Z,796.00
2018-08-19T18:16:48.855Z,756.00
2018-08-19T18:17:47.396Z,716.00
2018-08-19T18:18:47.990Z,676.00
2018-08-19T18:19:47.626Z,640.00
2018-08-19T18:20:47.812Z,604.00
2018-08-19T18:21:48.056Z,568.00
2018-08-19T18:22:48.160Z,532.00
2018-08-19T18:23:48.419Z,496.00
2018-08-19T18:24:48.652Z,460.00
2018-08-19T19:04:45.541Z,0.00
2018-08-19T19:05:50.938Z,4.00
2018-08-19T19:07:47.805Z,0.00
2018-08-19T19:10:54.694Z,0.00
2018-08-19T19:11:44.681Z,0.00
2018-08-19T19:12:44.448Z,0.00
2018-08-19T19:13:44.867Z,0.00
2018-08-19T19:14:45.011Z,0.00
2018-08-19T19:15:44.936Z,0.00
2018-08-19T19:16:46.184Z,0.00
2018-08-19T19:17:45.342Z,0.00
2018-08-19T19:18:45.630Z,0.00
2018-08-19T19:19:46.467Z,0.00
2018-08-19T19:20:45.983Z,0.00
2018-08-19T19:21:46.134Z,0.00
2018-08-19T19:22:46.228Z,0.00
2018-08-19T19:23:46.523Z,0.00
2018-08-19T19:24:47.078Z,0.00
2018-08-19T19:25:46.781Z,0.00
2018-08-19T19:26:46.965Z,0.00
2018-08-19T19:27:47.181Z,0.00
2018-08-19T19:28:47.206Z,0.00
2018-08-19T19:29:48.080Z,0.00
2018-08-19T19:30:47.797Z,0.00
2018-08-19T19:31:48.597Z,0.00
2018-08-19T19:32:48.477Z,0.00
2018-08-19T19:33:48.148Z,0.00
2018-08-19T19:34:48.473Z,0.00
2018-08-19T19:35:48.571Z,0.00
2018-08-19T19:36:48.923Z,0.00
2018-08-19T19:37:49.747Z,0.00
2018-08-19T19:38:48.898Z,0.00
2018-08-19T19:39:49.105Z,0.00
2018-08-19T19:40:49.384Z,0.00
2018-08-19T19:41:49.473Z,0.00
2018-08-19T19:42:49.699Z,0.00
2018-08-19T19:43:49.805Z,0.00
2018-08-19T19:44:50.026Z,0.00
2018-08-19T19:45:50.298Z,0.00
2018-08-19T19:46:50.336Z,0.00
2018-08-19T19:47:50.567Z,0.00
2018-08-19T19:48:50.579Z,0.00
2018-08-19T19:49:50.974Z,0.00
2018-08-19T19:50:51.100Z,0.00
2018-08-19T19:51:51.255Z,0.00
2018-08-19T19:52:51.496Z,0.00
2018-08-19T19:53:51.716Z,0.00
2018-08-19T19:54:52.110Z,0.00
2018-08-19T19:55:53.138Z,0.00
2018-08-19T19:56:52.201Z,0.00
2018-08-19T19:57:52.385Z,0.00
2018-08-19T19:58:52.484Z,0.00
2018-08-19T19:59:53.071Z,0.00
2018-08-19T20:00:53.274Z,0.00
2018-08-19T20:01:53.216Z,0.00
2018-08-19T20:02:53.243Z,0.00
2018-08-19T20:03:53.417Z,0.00
2018-08-19T20:04:53.583Z,0.00
2018-08-19T20:05:53.773Z,0.00
2018-08-19T20:06:53.968Z,0.00
2018-08-19T20:07:54.081Z,0.00
2018-08-19T20:08:54.328Z,0.00
2018-08-19T20:09:54.449Z,0.00
2018-08-19T20:10:54.624Z,0.00
2018-08-19T20:11:54.739Z,0.00
2018-08-19T20:12:54.970Z,0.00
2018-08-19T20:13:55.589Z,0.00
2018-08-19T20:14:55.291Z,0.00
2018-08-19T20:15:55.513Z,0.00
2018-08-19T20:16:55.666Z,0.00
2018-08-19T20:17:55.801Z,0.00
2018-08-19T20:18:55.982Z,0.00
2018-08-19T20:19:56.114Z,0.00
2018-08-19T20:20:58.575Z,0.00
2018-08-19T20:22:57.033Z,0.00
2018-08-19T20:23:57.037Z,0.00
2018-08-19T20:24:57.542Z,0.00
2018-08-19T20:25:57.410Z,0.00
2018-08-19T20:26:57.699Z,0.00
2018-08-19T20:27:57.760Z,0.00
2018-08-19T20:29:01.005Z,0.00
2018-08-19T20:29:58.205Z,0.00
2018-08-19T20:30:58.792Z,0.00
2018-08-19T20:31:58.543Z,0.00
2018-08-19T20:32:59.006Z,0.00
2018-08-19T20:33:59.183Z,0.00
2018-08-19T20:34:59.137Z,0.00
2018-08-19T20:35:59.497Z,0.00
2018-08-19T20:36:59.519Z,0.00
2018-08-19T20:37:59.610Z,0.00
2018-08-19T20:39:00.007Z,0.00
2018-08-19T20:40:00.125Z,0.00
2018-08-19T20:42:00.970Z,0.00
2018-08-19T20:43:01.595Z,0.00
2018-08-19T20:44:00.759Z,0.00
2018-08-19T20:45:00.863Z,0.00
2018-08-19T20:46:01.457Z,0.00
2018-08-19T20:47:01.530Z,0.00
2018-08-19T20:48:01.426Z,0.00
2018-08-19T20:49:01.630Z,0.00
2018-08-19T20:50:02.222Z,0.00
2018-08-19T20:51:02.037Z,0.00
2018-08-19T20:52:02.134Z,0.00
2018-08-19T20:53:02.695Z,0.00
2018-08-19T20:54:02.903Z,0.00
2018-08-19T20:55:03.049Z,0.00
2018-08-19T20:56:03.610Z,0.00
2018-08-19T20:57:03.112Z,0.00
2018-08-19T20:58:04.086Z,0.00
2018-08-19T20:59:03.319Z,0.00
2018-08-19T21:00:03.971Z,0.00
2018-08-19T21:01:04.132Z,0.00
2018-08-19T21:02:04.052Z,0.00
2018-08-19T21:03:04.262Z,0.00
2018-08-19T21:04:04.425Z,0.00
2018-08-19T21:05:04.395Z,0.00
2018-08-19T21:06:04.667Z,0.00
2018-08-19T21:07:04.773Z,0.00
2018-08-19T21:08:04.999Z,0.00
2018-08-19T21:09:05.222Z,0.00
2018-08-19T21:10:05.311Z,0.00
2018-08-19T21:11:05.383Z,0.00
2018-08-19T21:12:05.743Z,0.00
2018-08-19T21:13:06.642Z,0.00
2018-08-19T21:14:05.966Z,0.00
2018-08-19T21:15:06.621Z,0.00
2018-08-19T21:16:07.120Z,0.00
2018-08-19T21:17:07.237Z,0.00
2018-08-19T21:18:06.623Z,0.00
2018-08-19T21:19:06.738Z,0.00
2018-08-19T21:20:07.361Z,0.00
2018-08-19T21:21:07.500Z,0.00
2018-08-19T21:22:07.539Z,0.00
2018-08-19T21:23:07.770Z,0.00
2018-08-19T21:24:07.764Z,0.00
2018-08-19T21:25:10.387Z,0.00
2018-08-19T21:26:08.293Z,0.00
2018-08-19T21:27:08.562Z,0.00
2018-08-19T21:28:08.716Z,0.00
2018-08-19T21:29:08.910Z,0.00
2018-08-19T21:30:09.088Z,0.00
2018-08-19T21:31:09.226Z,0.00
2018-08-19T21:32:09.438Z,0.00
2018-08-19T21:33:09.564Z,0.00
2018-08-19T21:34:09.699Z,0.00
2018-08-19T21:35:09.982Z,0.00
2018-08-19T21:37:17.088Z,0.00
2018-08-19T21:37:18.747Z,0.00
2018-08-19T21:38:18.920Z,0.00
2018-08-19T21:39:20.219Z,0.00
2018-08-19T21:40:19.099Z,0.00
2018-08-19T21:41:19.355Z,0.00
2018-08-19T21:42:19.563Z,0.00
2018-08-19T21:43:19.830Z,0.00
2018-08-19T21:44:19.965Z,0.00
2018-08-19T21:45:19.931Z,0.00
2018-08-19T21:46:20.069Z,0.00
2018-08-19T21:47:20.279Z,0.00
2018-08-19T21:48:20.682Z,0.00
2018-08-19T21:49:20.921Z,0.00
